Time;durP1;ratioP1;P1;durP2;ratioP2;P2;SDS_P1;SDS_P2;PMS_P1;PMS_P2;Temp;Humidity;BMP_temperature;BMP_pressure;BME280_temperature;BME280_humidity;BME280_pressure;Samples;Min_cycle;Max_cycle;Signal;HPM_P1;HPM_P2
2021/04/02 00:00:40;;;;;;;3.90;2.15;;;23.40;78.00;;;;;;5053631;28;20104;-62
2021/04/02 00:03:34;;;;;;;6.35;1.73;;;23.50;78.00;;;;;;5054065;28;20029;-61
2021/04/02 00:06:04;;;;;;;2.22;1.60;;;23.50;77.90;;;;;;5054048;28;20380;-58
2021/04/02 00:08:31;;;;;;;4.97;1.63;;;23.60;77.80;;;;;;5054356;28;20456;-62
2021/04/02 00:11:01;;;;;;;2.90;1.52;;;23.50;77.40;;;;;;5053741;28;20025;-62
2021/04/02 00:13:31;;;;;;;3.10;1.55;;;23.60;77.30;;;;;;5054006;28;20056;-62
2021/04/02 00:15:59;;;;;;;3.20;1.50;;;23.60;78.00;;;;;;5053883;28;20036;-59
2021/04/02 00:18:28;;;;;;;3.47;1.52;;;23.60;77.80;;;;;;5036029;28;20017;-62
2021/04/02 00:20:57;;;;;;;4.13;1.65;;;23.70;77.30;;;;;;5053673;28;20475;-59
2021/04/02 00:23:26;;;;;;;4.30;1.30;;;23.70;77.50;;;;;;5053948;28;20041;-56
2021/04/02 00:25:53;;;;;;;3.17;1.77;;;23.90;75.90;;;;;;5035922;28;20524;-59
2021/04/02 00:28:21;;;;;;;3.00;1.52;;;23.90;75.90;;;;;;5053742;28;20035;-55
2021/04/02 00:30:51;;;;;;;7.65;1.30;;;23.80;77.10;;;;;;5053575;28;20025;-62
2021/04/02 00:33:21;;;;;;;3.55;1.55;;;23.80;76.10;;;;;;5053420;28;20039;-54
2021/04/02 00:35:49;;;;;;;1.95;1.27;;;23.70;77.60;;;;;;5053501;28;20037;-60
2021/04/02 00:38:17;;;;;;;2.30;1.40;;;23.80;76.90;;;;;;5053393;28;20021;-60
2021/04/02 00:41:20;;;;;;;6.03;1.45;;;23.70;77.30;;;;;;5053345;28;20029;-57
2021/04/02 00:43:52;;;;;;;4.03;1.90;;;23.70;76.50;;;;;;4937070;29;20073;-60
2021/04/02 00:46:20;;;;;;;;;;;23.60;77.90;;;;;;5039216;28;20448;-63
2021/04/02 00:48:48;;;;;;;3.40;1.65;;;23.50;78.60;;;;;;5053310;28;20346;-58
2021/04/02 00:51:26;;;;;;;3.45;1.83;;;23.40;78.80;;;;;;5053020;28;20040;-66
2021/04/02 00:53:53;;;;;;;4.30;2.00;;;23.40;79.10;;;;;;5053711;28;20491;-56
2021/04/02 00:56:22;;;;;;;7.65;2.10;;;23.40;78.80;;;;;;5053250;28;20429;-64
2021/04/02 00:58:50;;;;;;;8.02;2.63;;;23.50;79.40;;;;;;5053289;28;20025;-58
2021/04/02 01:01:18;;;;;;;4.00;2.08;;;23.50;79.10;;;;;;5053646;28;20330;-62
2021/04/02 01:03:47;;;;;;;6.47;1.85;;;23.50;79.20;;;;;;5053267;28;20105;-63
2021/04/02 01:06:21;;;;;;;3.63;1.58;;;23.50;78.30;;;;;;5053337;28;20134;-68
2021/04/02 01:08:48;;;;;;;4.32;2.35;;;23.60;78.20;;;;;;5053284;28;20116;-56
2021/04/02 01:11:18;;;;;;;8.05;2.03;;;23.60;79.40;;;;;;5051871;28;20020;-56
2021/04/02 01:13:54;;;;;;;9.68;1.95;;;23.80;77.10;;;;;;5073050;28;20360;-53
2021/04/02 01:16:33;;;;;;;5.93;2.13;;;23.90;76.20;;;;;;5073255;28;20032;-58
2021/04/02 01:19:12;;;;;;;8.57;2.00;;;24.10;76.70;;;;;;5073286;28;20029;-60
2021/04/02 01:22:10;;;;;;;3.53;1.63;;;24.10;77.30;;;;;;5055122;28;20021;-58
2021/04/02 01:24:46;;;;;;;9.50;2.35;;;24.20;75.60;;;;;;5072576;28;20032;-56
2021/04/02 01:27:49;;;;;;;6.03;2.25;;;24.30;76.10;;;;;;5072626;28;20506;-57
2021/04/02 01:30:17;;;;;;;4.18;1.67;;;24.40;76.30;;;;;;5073024;28;20028;-58
2021/04/02 01:32:48;;;;;;;5.03;1.80;;;24.60;73.90;;;;;;5072777;28;20046;-53
2021/04/02 01:35:17;;;;;;;9.60;1.80;;;24.70;73.20;;;;;;5072917;28;20071;-68
2021/04/02 01:38:08;;;;;;;5.50;1.75;;;24.70;72.40;;;;;;5072674;28;20036;-57
2021/04/02 01:40:39;;;;;;;5.97;2.00;;;24.70;75.10;;;;;;5072557;28;20104;-53
2021/04/02 01:43:15;;;;;;;4.72;2.25;;;24.90;74.40;;;;;;5072588;28;20417;-64
2021/04/02 01:45:44;;;;;;;4.85;1.90;;;24.80;74.70;;;;;;5072788;28;20475;-62
2021/04/02 01:48:14;;;;;;;4.22;2.08;;;24.90;73.00;;;;;;5072503;28;20036;-62
2021/04/02 01:50:47;;;;;;;4.60;2.17;;;25.00;72.30;;;;;;5072939;28;20369;-61
2021/04/02 01:53:19;;;;;;;7.15;1.70;;;25.30;71.40;;;;;;5072430;28;20668;-63
2021/04/02 01:55:47;;;;;;;5.63;1.63;;;25.20;71.50;;;;;;5072619;28;20065;-67
2021/04/02 01:58:14;;;;;;;3.58;2.00;;;25.20;73.70;;;;;;5072662;28;20024;-68
2021/04/02 02:00:49;;;;;;;4.70;1.85;;;25.00;73.80;;;;;;5072773;28;20073;-63
2021/04/02 02:03:18;;;;;;;4.95;2.03;;;25.20;72.40;;;;;;5072125;28;20434;-65
2021/04/02 02:05:48;;;;;;;6.80;2.05;;;25.10;74.20;;;;;;5072322;28;20021;-60
2021/04/02 02:08:18;;;;;;;4.90;1.80;;;25.20;73.00;;;;;;5071766;28;20040;-68
2021/04/02 02:10:48;;;;;;;5.45;2.13;;;25.30;71.80;;;;;;5072511;28;20054;-65
2021/04/02 02:13:17;;;;;;;5.10;1.70;;;25.50;70.40;;;;;;5072346;28;20028;-57
2021/04/02 02:15:45;;;;;;;5.03;2.10;;;25.50;70.90;;;;;;5072267;28;20101;-64
2021/04/02 02:18:15;;;;;;;5.68;2.17;;;25.50;73.10;;;;;;5072077;28;20027;-65
2021/04/02 02:20:45;;;;;;;3.88;1.67;;;25.30;73.40;;;;;;5072571;28;20071;-66
2021/04/02 02:23:12;;;;;;;2.38;1.35;;;25.30;72.90;;;;;;5072256;28;20033;-65
2021/04/02 02:25:40;;;;;;;4.20;2.35;;;25.50;71.40;;;;;;5072345;28;20025;-65
2021/04/02 02:28:07;;;;;;;4.38;2.50;;;25.50;71.00;;;;;;5072663;28;20145;-57
2021/04/02 02:30:36;;;;;;;9.50;2.35;;;25.60;70.80;;;;;;5072172;28;20032;-67
2021/04/02 02:33:03;;;;;;;4.13;1.95;;;25.60;71.10;;;;;;5072278;28;20445;-53
2021/04/02 02:35:31;;;;;;;4.40;2.30;;;25.70;72.60;;;;;;5072171;28;20213;-65
2021/04/02 02:38:01;;;;;;;5.15;1.55;;;25.70;72.00;;;;;;5072340;28;20028;-56
2021/04/02 02:40:31;;;;;;;5.10;2.03;;;25.80;71.70;;;;;;5072334;28;20033;-61
2021/04/02 02:42:59;;;;;;;4.07;1.95;;;25.80;70.60;;;;;;5054355;28;20036;-64
2021/04/02 02:45:33;;;;;;;3.92;1.60;;;25.80;71.50;;;;;;5072102;28;20029;-64
2021/04/02 02:48:01;;;;;;;5.88;1.85;;;25.90;69.80;;;;;;5072269;28;20077;-62
2021/04/02 02:50:34;;;;;;;4.18;2.08;;;25.90;70.50;;;;;;5072515;28;20519;-62
2021/04/02 02:53:05;;;;;;;3.55;1.73;;;25.90;69.50;;;;;;5072531;28;20192;-61
2021/04/02 02:55:35;;;;;;;5.53;1.80;;;25.90;71.10;;;;;;5054959;28;20060;-60
2021/04/02 02:58:04;;;;;;;4.53;2.42;;;25.70;73.00;;;;;;5072376;28;20025;-67
2021/04/02 03:00:43;;;;;;;4.55;1.70;;;25.80;69.90;;;;;;5071819;28;20462;-62
2021/04/02 03:03:15;;;;;;;3.47;1.60;;;25.90;69.30;;;;;;5071560;28;20082;-62
2021/04/02 03:05:46;;;;;;;4.68;1.52;;;25.80;72.70;;;;;;5071725;28;20367;-62
2021/04/02 03:08:20;;;;;;;3.13;1.40;;;25.90;70.50;;;;;;5053601;28;20028;-63
2021/04/02 03:10:48;;;;;;;4.10;1.55;;;26.00;68.70;;;;;;5053858;28;20126;-62
2021/04/02 03:13:25;;;;;;;4.40;1.65;;;26.00;71.50;;;;;;5072021;28;20029;-65
2021/04/02 03:15:58;;;;;;;4.80;1.63;;;25.90;69.50;;;;;;5072100;28;20016;-67
2021/04/02 03:18:26;;;;;;;6.65;1.58;;;26.00;72.50;;;;;;5071919;28;20056;-67
2021/04/02 03:20:56;;;;;;;5.85;2.10;;;26.00;72.50;;;;;;5074671;28;20028;-68
2021/04/02 03:23:24;;;;;;;4.15;1.40;;;25.90;72.80;;;;;;5075496;28;20825;-67
2021/04/02 03:25:52;;;;;;;3.22;1.15;;;26.00;70.00;;;;;;5075570;28;20021;-67
2021/04/02 03:28:21;;;;;;;3.83;1.45;;;26.10;69.10;;;;;;5075483;28;20028;-69
2021/04/02 03:30:49;;;;;;;5.50;2.20;;;26.40;67.50;;;;;;5075398;28;20020;-63
2021/04/02 03:33:25;;;;;;;3.17;1.48;;;26.30;70.50;;;;;;5074965;28;20020;-67
2021/04/02 03:35:59;;;;;;;3.47;1.38;;;26.20;68.80;;;;;;5075756;28;20490;-63
2021/04/02 03:38:33;;;;;;;7.53;2.15;;;26.40;70.00;;;;;;5057581;28;20029;-67
2021/04/02 03:41:04;;;;;;;4.85;1.58;;;26.30;71.30;;;;;;5075305;28;20059;-67
2021/04/02 03:43:33;;;;;;;2.80;1.35;;;26.30;69.00;;;;;;5074934;28;20032;-69
2021/04/02 03:46:02;;;;;;;4.32;1.40;;;26.20;71.90;;;;;;5074881;28;20024;-68
2021/04/02 03:48:36;;;;;;;3.38;1.42;;;26.40;71.00;;;;;;5074951;28;20406;-66
2021/04/02 03:51:07;;;;;;;1.85;1.20;;;26.40;70.50;;;;;;5074987;28;20021;-70
2021/04/02 03:53:57;;;;;;;2.33;1.40;;;26.40;71.10;;;;;;5075456;28;20016;-63
2021/04/02 03:56:31;;;;;;;4.40;2.08;;;26.40;71.40;;;;;;5075086;28;20025;-68
2021/04/02 03:58:59;;;;;;;4.40;1.67;;;26.10;72.30;;;;;;5057924;28;20028;-64
2021/04/02 04:01:36;;;;;;;2.40;1.25;;;26.30;70.30;;;;;;5074245;28;20056;-63
2021/04/02 04:04:03;;;;;;;3.50;1.58;;;26.40;71.80;;;;;;5075368;28;20125;-68
2021/04/02 04:06:32;;;;;;;3.20;1.60;;;26.30;71.90;;;;;;5074265;28;20044;-58
2021/04/02 04:09:06;;;;;;;3.05;1.23;;;26.40;71.70;;;;;;5074677;28;20040;-67
2021/04/02 04:11:35;;;;;;;2.33;1.23;;;26.20;72.40;;;;;;5054095;28;20038;-54
2021/04/02 04:14:04;;;;;;;2.78;1.20;;;26.20;72.80;;;;;;5074420;28;20024;-65
2021/04/02 04:16:33;;;;;;;2.45;1.50;;;26.20;72.60;;;;;;5074287;28;20165;-53
2021/04/02 04:19:03;;;;;;;4.22;1.63;;;26.20;73.10;;;;;;5074801;28;20032;-59
2021/04/02 04:21:39;;;;;;;4.10;1.80;;;26.20;71.70;;;;;;5074320;28;20386;-61
2021/04/02 04:24:08;;;;;;;2.35;1.42;;;26.30;72.30;;;;;;5074414;28;20096;-57
2021/04/02 04:26:35;;;;;;;2.75;1.45;;;26.30;72.10;;;;;;5074331;28;20024;-58
2021/04/02 04:29:07;;;;;;;2.92;1.42;;;26.40;72.00;;;;;;5074145;28;20379;-66
2021/04/02 04:31:34;;;;;;;2.92;1.10;;;26.30;70.80;;;;;;5073524;28;20118;-64
2021/04/02 04:34:03;;;;;;;4.25;1.35;;;26.30;72.80;;;;;;5074200;28;20032;-59
2021/04/02 04:36:31;;;;;;;3.10;1.48;;;26.50;71.40;;;;;;5074179;28;20028;-57
2021/04/02 04:39:00;;;;;;;4.03;1.42;;;26.40;72.10;;;;;;5073756;28;20103;-68
2021/04/02 04:41:28;;;;;;;2.83;1.13;;;26.50;71.30;;;;;;5073825;28;20069;-66
2021/04/02 04:43:57;;;;;;;3.70;1.30;;;26.60;69.80;;;;;;5073800;28;20043;-61
2021/04/02 04:46:25;;;;;;;3.08;1.20;;;26.50;72.30;;;;;;5073839;28;20032;-59
2021/04/02 04:48:52;;;;;;;3.55;1.38;;;26.40;72.50;;;;;;5074010;28;20027;-62
2021/04/02 04:51:22;;;;;;;2.42;1.10;;;26.30;71.90;;;;;;5073885;28;20024;-54
2021/04/02 04:53:53;;;;;;;2.53;1.00;;;26.30;71.90;;;;;;5074127;28;20024;-63
2021/04/02 04:56:22;;;;;;;4.80;1.50;;;26.30;71.50;;;;;;5073940;28;20031;-65
2021/04/02 04:58:53;;;;;;;2.03;1.23;;;26.30;72.70;;;;;;5073783;28;20028;-63
2021/04/02 05:01:22;;;;;;;3.37;1.30;;;26.20;72.50;;;;;;5073312;28;20028;-64
2021/04/02 05:03:52;;;;;;;2.78;1.13;;;26.20;73.30;;;;;;5073504;28;20067;-68
2021/04/02 05:06:22;;;;;;;4.63;1.48;;;26.20;72.80;;;;;;5073584;28;20086;-66
2021/04/02 05:08:52;;;;;;;2.67;1.17;;;26.30;72.80;;;;;;5073417;28;20060;-56
2021/04/02 05:11:26;;;;;;;2.20;1.20;;;26.20;74.10;;;;;;5073323;28;20104;-57
2021/04/02 05:13:56;;;;;;;1.35;1.00;;;26.20;73.70;;;;;;5055718;28;20360;-66
2021/04/02 05:16:25;;;;;;;1.67;1.17;;;26.10;74.20;;;;;;5072877;28;20112;-64
2021/04/02 05:18:54;;;;;;;2.15;1.30;;;26.10;74.10;;;;;;5073318;28;20025;-62
2021/04/02 05:21:21;;;;;;;3.63;1.10;;;26.20;73.80;;;;;;5072473;28;20020;-64
2021/04/02 05:23:49;;;;;;;2.58;1.35;;;26.20;74.00;;;;;;5072649;28;20051;-66
2021/04/02 05:26:17;;;;;;;1.55;1.00;;;26.20;73.80;;;;;;5072936;28;20425;-62
2021/04/02 05:28:44;;;;;;;2.70;1.10;;;26.30;73.60;;;;;;5072982;28;20104;-68
2021/04/02 05:31:11;;;;;;;2.40;1.55;;;26.20;74.40;;;;;;5072541;28;20056;-56
2021/04/02 05:33:39;;;;;;;1.65;1.08;;;26.30;73.70;;;;;;5073144;28;20107;-62
2021/04/02 05:36:06;;;;;;;2.15;1.15;;;26.20;72.50;;;;;;5072271;28;20036;-69
2021/04/02 05:38:34;;;;;;;1.85;1.17;;;26.40;73.60;;;;;;5072730;28;20026;-67
2021/04/02 05:41:09;;;;;;;2.20;1.30;;;26.30;73.60;;;;;;5055490;28;20367;-68
2021/04/02 05:43:48;;;;;;;3.47;1.20;;;26.30;74.00;;;;;;5071949;28;20089;-65
2021/04/02 05:46:22;;;;;;;2.60;1.38;;;26.30;72.80;;;;;;5072778;28;20020;-67
2021/04/02 05:49:02;;;;;;;2.72;1.20;;;26.30;74.20;;;;;;5072654;28;20448;-66
2021/04/02 05:51:30;;;;;;;1.75;1.17;;;26.30;73.90;;;;;;5072945;28;20096;-60
2021/04/02 05:53:58;;;;;;;2.08;1.50;;;26.30;73.80;;;;;;5071592;28;20383;-64
2021/04/02 05:56:27;;;;;;;2.15;1.13;;;26.30;74.10;;;;;;5072832;28;20020;-66
2021/04/02 05:58:55;;;;;;;2.72;1.20;;;26.30;73.70;;;;;;5072401;28;20475;-68
2021/04/02 06:01:22;;;;;;;1.50;0.93;;;26.30;72.40;;;;;;5072537;28;20131;-67
2021/04/02 06:03:50;;;;;;;2.90;1.08;;;26.30;73.90;;;;;;5054592;28;20046;-56
2021/04/02 06:06:17;;;;;;;2.15;1.10;;;26.20;73.40;;;;;;5072280;28;20049;-69
2021/04/02 06:08:46;;;;;;;1.70;0.95;;;26.20;73.10;;;;;;5072655;28;20375;-66
2021/04/02 06:11:15;;;;;;;1.98;1.08;;;26.10;74.60;;;;;;5072128;28;20490;-59
2021/04/02 06:13:42;;;;;;;1.75;1.00;;;26.00;74.90;;;;;;5072417;28;20029;-56
2021/04/02 06:16:10;;;;;;;2.13;1.00;;;25.90;75.50;;;;;;5072079;28;20028;-60
2021/04/02 06:18:39;;;;;;;5.93;1.40;;;26.00;74.10;;;;;;5072362;28;20043;-67
2021/04/02 06:21:07;;;;;;;1.75;1.20;;;26.10;75.10;;;;;;5072206;28;20093;-68
2021/04/02 06:23:37;;;;;;;1.63;1.23;;;26.00;75.10;;;;;;5072567;28;20044;-64
2021/04/02 06:26:13;;;;;;;2.13;1.10;;;26.10;74.80;;;;;;5071984;28;20021;-68
2021/04/02 06:28:42;;;;;;;5.18;1.30;;;26.00;74.90;;;;;;5054212;28;20026;-64
2021/04/02 06:31:17;;;;;;;4.05;1.42;;;26.00;73.60;;;;;;5071913;28;20046;-66
2021/04/02 06:33:52;;;;;;;4.80;1.73;;;26.00;75.00;;;;;;5072093;28;20111;-64
2021/04/02 06:36:28;;;;;;;2.30;1.10;;;26.00;74.40;;;;;;5070771;28;20033;-63
2021/04/02 06:39:02;;;;;;;2.92;1.23;;;26.00;75.20;;;;;;5071873;28;20021;-68
2021/04/02 06:41:31;;;;;;;1.30;1.02;;;25.90;75.70;;;;;;5072130;28;20056;-63
2021/04/02 06:44:04;;;;;;;2.60;1.00;;;25.90;73.30;;;;;;5071319;28;20208;-64
2021/04/02 06:46:34;;;;;;;2.15;1.23;;;25.90;74.90;;;;;;5072089;28;20013;-63
2021/04/02 06:49:16;;;;;;;2.33;1.02;;;25.80;73.70;;;;;;5072122;28;20028;-62
2021/04/02 06:51:53;;;;;;;1.42;1.10;;;25.90;74.90;;;;;;5072148;28;20028;-68
2021/04/02 06:54:24;;;;;;;3.15;1.08;;;25.80;75.50;;;;;;5074190;28;20012;-60
2021/04/02 06:57:07;;;;;;;4.88;1.00;;;25.80;74.20;;;;;;5076012;28;20023;-69
2021/04/02 06:59:35;;;;;;;1.77;0.70;;;25.80;73.80;;;;;;5075877;28;20459;-68
2021/04/02 07:02:05;;;;;;;2.95;1.00;;;25.80;73.60;;;;;;5075990;28;20028;-63
2021/04/02 07:04:34;;;;;;;2.78;1.17;;;25.70;73.90;;;;;;5075857;28;20538;-55
2021/04/02 07:07:03;;;;;;;1.30;0.80;;;25.60;74.90;;;;;;5075688;28;20059;-61
2021/04/02 07:09:34;;;;;;;5.28;1.45;;;25.60;75.40;;;;;;5076049;28;20048;-57
2021/04/02 07:12:02;;;;;;;3.22;1.13;;;25.50;76.00;;;;;;5072431;28;20035;-62
2021/04/02 07:14:32;;;;;;;3.00;1.00;;;25.50;75.20;;;;;;5074864;28;20031;-55
2021/04/02 07:17:00;;;;;;;3.42;1.50;;;25.40;75.10;;;;;;5075672;28;20115;-66
2021/04/02 07:19:31;;;;;;;3.53;1.30;;;25.30;75.20;;;;;;5075409;28;20356;-69
2021/04/02 07:21:59;;;;;;;2.35;0.95;;;25.30;75.50;;;;;;5075394;28;20031;-65
2021/04/02 07:24:27;;;;;;;1.58;1.00;;;25.20;76.70;;;;;;5075452;28;20028;-67
2021/04/02 07:26:54;;;;;;;2.92;1.20;;;25.20;76.30;;;;;;5075704;28;20024;-67
2021/04/02 07:29:24;;;;;;;2.83;0.98;;;25.10;77.40;;;;;;5075022;28;20046;-68
2021/04/02 07:31:52;;;;;;;2.53;1.13;;;25.00;77.30;;;;;;5075168;28;20082;-67
2021/04/02 07:34:20;;;;;;;1.95;0.90;;;24.90;78.60;;;;;;5075598;28;20379;-68
2021/04/02 07:36:48;;;;;;;1.70;0.90;;;24.80;78.40;;;;;;5074026;28;20024;-62
2021/04/02 07:39:20;;;;;;;3.17;1.00;;;24.70;77.50;;;;;;5074872;28;20025;-68
2021/04/02 07:41:56;;;;;;;2.55;1.13;;;24.70;77.70;;;;;;5075338;28;20032;-67
2021/04/02 07:44:23;;;;;;;2.95;1.20;;;24.60;78.70;;;;;;5075336;28;20028;-70
2021/04/02 07:47:08;;;;;;;2.28;1.00;;;24.50;78.00;;;;;;5075063;28;20021;-68
2021/04/02 07:50:01;;;;;;;2.30;1.05;;;24.40;79.40;;;;;;5074999;28;20054;-64
2021/04/02 07:52:54;;;;;;;1.65;0.73;;;24.40;79.70;;;;;;5057074;28;20059;-62
2021/04/02 07:55:21;;;;;;;2.38;0.95;;;24.30;80.00;;;;;;5075543;28;20052;-69
2021/04/02 07:58:04;;;;;;;2.55;1.15;;;24.30;80.20;;;;;;5074613;28;20033;-66
2021/04/02 08:00:36;;;;;;;2.92;1.17;;;24.20;79.90;;;;;;5074360;28;20063;-66
2021/04/02 08:03:14;;;;;;;1.95;1.27;;;24.10;81.60;;;;;;5074258;28;20032;-52
2021/04/02 08:06:34;;;;;;;2.70;1.58;;;24.10;81.00;;;;;;5074238;28;20024;-65
2021/04/02 08:09:03;;;;;;;2.22;1.33;;;24.00;82.70;;;;;;5053664;28;20066;-64
2021/04/02 08:11:50;;;;;;;1.08;0.90;;;24.00;82.30;;;;;;5074925;28;20031;-62
2021/04/02 08:14:34;;;;;;;7.93;1.60;;;23.90;81.90;;;;;;5074470;28;20074;-60
2021/04/02 08:17:06;;;;;;;1.83;1.10;;;23.90;82.20;;;;;;5073836;28;20036;-61
2021/04/02 08:19:39;;;;;;;;;;;23.90;82.70;;;;;;5074575;28;20035;-67
2021/04/02 08:22:15;;;;;;;1.52;0.80;;;23.80;84.10;;;;;;5056279;28;20244;-64
2021/04/02 08:24:45;;;;;;;1.42;1.00;;;23.80;83.60;;;;;;5074091;28;20107;-57
2021/04/02 08:27:17;;;;;;;1.70;0.90;;;23.70;84.10;;;;;;5073452;28;20032;-67
2021/04/02 08:30:01;;;;;;;3.35;1.13;;;23.70;84.30;;;;;;5074736;28;20065;-65
2021/04/02 08:32:31;;;;;;;5.78;2.13;;;23.70;84.20;;;;;;5057479;28;20033;-67
2021/04/02 08:34:59;;;;;;;2.55;0.93;;;23.70;83.60;;;;;;5073464;28;20090;-64
2021/04/02 08:37:29;;;;;;;3.00;1.45;;;23.60;85.10;;;;;;5075101;28;20025;-68
2021/04/02 08:40:01;;;;;;;2.70;1.17;;;23.60;84.90;;;;;;5074484;28;20031;-64
2021/04/02 08:42:32;;;;;;;3.13;1.10;;;23.60;85.00;;;;;;5074699;28;20068;-62
2021/04/02 08:45:09;;;;;;;1.63;1.00;;;23.60;85.00;;;;;;5074076;28;20499;-64
2021/04/02 08:47:40;;;;;;;2.42;1.08;;;23.60;85.40;;;;;;5074380;28;20024;-61
2021/04/02 08:50:09;;;;;;;1.70;1.00;;;23.60;85.40;;;;;;5074199;28;20029;-62
2021/04/02 08:52:36;;;;;;;1.80;1.10;;;23.50;85.60;;;;;;5074616;28;20502;-65
2021/04/02 08:55:09;;;;;;;3.67;1.30;;;23.50;85.10;;;;;;5074344;28;20486;-62
2021/04/02 08:57:40;;;;;;;3.97;1.10;;;23.50;85.70;;;;;;5074387;28;20457;-61
2021/04/02 09:00:10;;;;;;;5.47;1.30;;;23.50;85.60;;;;;;5073052;28;20036;-66
2021/04/02 09:02:41;;;;;;;1.88;0.80;;;23.40;85.90;;;;;;5073028;28;20289;-63
2021/04/02 09:05:13;;;;;;;1.83;1.10;;;23.40;85.20;;;;;;5074267;28;20035;-65
2021/04/02 09:07:41;;;;;;;;;;;23.40;85.30;;;;;;5074516;28;20076;-64
2021/04/02 09:10:13;;;;;;;2.65;1.13;;;23.40;85.60;;;;;;5074035;28;19935;-59
2021/04/02 09:12:48;;;;;;;2.75;1.40;;;23.40;86.00;;;;;;5074214;28;20025;-64
2021/04/02 09:15:23;;;;;;;2.55;1.40;;;23.30;85.60;;;;;;5056034;28;20119;-67
2021/04/02 09:17:50;;;;;;;1.67;1.10;;;23.30;85.50;;;;;;5074057;28;20027;-69
2021/04/02 09:20:19;;;;;;;4.38;1.40;;;23.30;86.10;;;;;;5074105;28;20108;-68
2021/04/02 09:22:47;;;;;;;4.05;1.13;;;23.30;85.90;;;;;;5073597;28;20039;-63
2021/04/02 09:25:18;;;;;;;2.30;1.08;;;23.30;86.00;;;;;;5072290;28;20025;-63
2021/04/02 09:27:46;;;;;;;2.83;0.98;;;23.30;85.60;;;;;;5073594;28;20030;-66
2021/04/02 09:30:26;;;;;;;2.95;1.40;;;23.30;86.20;;;;;;5073290;28;20028;-61
2021/04/02 09:32:56;;;;;;;2.75;0.93;;;23.20;85.50;;;;;;5073732;28;20029;-60
2021/04/02 09:35:24;;;;;;;2.65;1.50;;;23.20;86.20;;;;;;5073008;28;20025;-61
2021/04/02 09:37:52;;;;;;;3.67;1.55;;;23.10;86.20;;;;;;5073262;28;20029;-65
2021/04/02 09:40:26;;;;;;;2.42;1.15;;;23.10;86.10;;;;;;5072856;28;20059;-63
2021/04/02 09:42:54;;;;;;;1.65;1.08;;;23.10;85.90;;;;;;5073074;28;20074;-68
2021/04/02 09:45:26;;;;;;;2.10;1.20;;;23.10;86.40;;;;;;5072548;28;20024;-67
2021/04/02 09:47:53;;;;;;;;;;;23.10;86.50;;;;;;5073669;28;20077;-68
2021/04/02 09:50:20;;;;;;;1.65;0.82;;;23.10;86.50;;;;;;5072993;28;19904;-54
2021/04/02 09:52:48;;;;;;;1.38;1.10;;;23.10;87.00;;;;;;5072576;28;20020;-58
2021/04/02 09:55:16;;;;;;;3.30;1.60;;;23.10;86.10;;;;;;5072323;28;20480;-58
2021/04/02 09:57:43;;;;;;;2.60;0.95;;;23.10;85.80;;;;;;5072491;28;20064;-60
2021/04/02 10:00:13;;;;;;;1.65;0.95;;;23.00;86.20;;;;;;5072579;28;20025;-53
2021/04/02 10:02:40;;;;;;;1.77;1.00;;;23.00;85.90;;;;;;5072772;28;20048;-64
2021/04/02 10:05:09;;;;;;;2.15;1.20;;;23.00;85.50;;;;;;5072385;28;20095;-62
2021/04/02 10:07:37;;;;;;;1.30;1.13;;;23.00;86.20;;;;;;5072020;28;20048;-67
2021/04/02 10:10:06;;;;;;;4.80;1.20;;;23.00;86.00;;;;;;5073207;28;20070;-67
2021/04/02 10:12:33;;;;;;;1.42;0.77;;;23.00;86.70;;;;;;5072181;28;20486;-64
2021/04/02 10:15:01;;;;;;;3.15;1.58;;;23.00;86.30;;;;;;5072175;28;20028;-68
2021/04/02 10:17:28;;;;;;;1.83;0.95;;;23.00;86.30;;;;;;5071801;28;20066;-53
2021/04/02 10:19:56;;;;;;;2.05;1.10;;;22.90;86.10;;;;;;5054391;28;20119;-64
2021/04/02 10:22:24;;;;;;;1.58;0.95;;;22.90;86.00;;;;;;5072339;28;20036;-62
2021/04/02 10:24:51;;;;;;;2.55;1.10;;;22.90;85.50;;;;;;5054497;28;20032;-61
2021/04/02 10:27:18;;;;;;;1.25;0.90;;;22.80;86.20;;;;;;5072013;28;20468;-59
2021/04/02 10:29:46;;;;;;;1.38;0.90;;;22.80;85.90;;;;;;5077790;28;20118;-64
2021/04/02 10:32:13;;;;;;;1.83;1.00;;;22.90;86.30;;;;;;5079193;28;20497;-65
2021/04/02 10:34:40;;;;;;;1.20;0.80;;;22.80;86.30;;;;;;5079567;28;20104;-68
2021/04/02 10:37:08;;;;;;;1.48;0.90;;;22.90;86.30;;;;;;5060903;28;20024;-65
2021/04/02 10:39:36;;;;;;;1.55;1.10;;;22.80;85.70;;;;;;5079323;28;20024;-67
2021/04/02 10:42:03;;;;;;;0.77;0.77;;;22.80;86.20;;;;;;5079511;28;20068;-66
2021/04/02 10:44:31;;;;;;;1.50;1.05;;;22.80;86.20;;;;;;5079156;28;20051;-68
2021/04/02 10:46:58;;;;;;;2.28;1.35;;;22.80;86.20;;;;;;5079298;28;20023;-65
2021/04/02 10:49:26;;;;;;;3.53;0.80;;;22.70;86.10;;;;;;5060999;28;20476;-66
2021/04/02 10:51:56;;;;;;;1.58;0.95;;;22.70;86.30;;;;;;5079465;28;20024;-66
2021/04/02 10:54:27;;;;;;;1.23;0.93;;;22.70;86.30;;;;;;5079720;28;20027;-64
2021/04/02 10:56:55;;;;;;;1.83;1.13;;;22.70;86.10;;;;;;5061429;28;20501;-65
2021/04/02 10:59:22;;;;;;;2.05;0.85;;;22.70;85.90;;;;;;5078601;28;20032;-62
2021/04/02 11:01:50;;;;;;;1.98;1.13;;;22.70;86.20;;;;;;5077064;28;20111;-62
2021/04/02 11:04:17;;;;;;;1.20;0.82;;;22.60;86.00;;;;;;5078716;28;20119;-63
2021/04/02 11:06:44;;;;;;;1.83;0.80;;;22.60;86.20;;;;;;5078791;28;20047;-64
2021/04/02 11:09:12;;;;;;;1.20;1.00;;;22.60;86.20;;;;;;5078462;28;20032;-62
2021/04/02 11:11:39;;;;;;;2.05;1.10;;;22.60;86.10;;;;;;5078767;28;20495;-65
2021/04/02 11:14:06;;;;;;;1.30;1.10;;;22.60;86.20;;;;;;5078789;28;20028;-67
2021/04/02 11:16:34;;;;;;;1.48;1.08;;;22.60;86.00;;;;;;5078551;28;20020;-59
2021/04/02 11:19:04;;;;;;;1.60;1.10;;;22.60;86.20;;;;;;5078409;28;20044;-58
2021/04/02 11:21:31;;;;;;;3.72;1.05;;;22.60;86.30;;;;;;5078655;28;20086;-62
2021/04/02 11:23:58;;;;;;;1.35;1.05;;;22.50;86.10;;;;;;5078544;28;20058;-67
2021/04/02 11:26:26;;;;;;;1.85;1.05;;;22.60;86.30;;;;;;5078739;28;20048;-60
2021/04/02 11:28:53;;;;;;;1.15;0.95;;;22.50;86.20;;;;;;5078178;28;20137;-67
2021/04/02 11:31:21;;;;;;;1.88;1.10;;;22.50;86.20;;;;;;5060105;28;20467;-62
2021/04/02 11:33:49;;;;;;;1.95;0.98;;;22.50;86.30;;;;;;5078326;28;20032;-66
2021/04/02 11:36:17;;;;;;;2.92;0.93;;;22.50;86.30;;;;;;5078433;28;20082;-61
2021/04/02 11:38:44;;;;;;;1.52;0.82;;;22.50;86.40;;;;;;5078357;28;20471;-62
2021/04/02 11:41:12;;;;;;;2.40;0.93;;;22.50;86.20;;;;;;5074359;28;20074;-60
2021/04/02 11:43:39;;;;;;;1.33;0.95;;;22.50;86.40;;;;;;5075397;28;20036;-60
2021/04/02 11:46:06;;;;;;;1.33;0.90;;;22.40;86.40;;;;;;5075352;28;20485;-66
2021/04/02 11:48:34;;;;;;;1.38;1.05;;;22.40;86.20;;;;;;5075129;28;20059;-67
2021/04/02 11:51:02;;;;;;;2.05;1.10;;;22.40;86.40;;;;;;5075165;28;20093;-66
2021/04/02 11:53:29;;;;;;;2.17;1.30;;;22.40;86.30;;;;;;5057530;28;20475;-66
2021/04/02 11:55:57;;;;;;;2.42;1.50;;;22.40;86.40;;;;;;5075142;28;20035;-67
2021/04/02 11:58:24;;;;;;;1.50;0.90;;;22.40;87.00;;;;;;5074778;28;20402;-57
2021/04/02 12:00:51;;;;;;;1.33;0.85;;;22.40;86.30;;;;;;5075004;28;20028;-63
2021/04/02 12:03:20;;;;;;;1.73;1.20;;;22.30;86.40;;;;;;5074583;28;20114;-66
2021/04/02 12:05:47;;;;;;;2.22;1.10;;;22.30;86.10;;;;;;5074795;28;20024;-64
2021/04/02 12:08:14;;;;;;;2.55;1.10;;;22.30;86.20;;;;;;5074818;28;20453;-64
2021/04/02 12:10:42;;;;;;;1.33;0.95;;;22.30;86.20;;;;;;5074785;28;20090;-66
2021/04/02 12:13:10;;;;;;;1.85;0.88;;;22.30;86.00;;;;;;5074663;28;20029;-65
2021/04/02 12:15:37;;;;;;;0.90;0.63;;;22.30;86.40;;;;;;5074673;28;20025;-65
2021/04/02 12:18:06;;;;;;;3.17;1.30;;;22.30;86.40;;;;;;5074565;28;20036;-68
2021/04/02 12:20:34;;;;;;;2.35;1.40;;;22.30;86.30;;;;;;5074734;28;20107;-58
2021/04/02 12:23:02;;;;;;;2.65;1.23;;;22.30;86.40;;;;;;5074480;28;20043;-66
2021/04/02 12:25:29;;;;;;;1.45;0.85;;;22.20;86.40;;;;;;5056606;28;20029;-61
2021/04/02 12:27:57;;;;;;;0.75;0.73;;;22.20;86.20;;;;;;5074140;28;20331;-53
2021/04/02 12:30:25;;;;;;;1.58;0.93;;;22.20;86.40;;;;;;5074558;28;20479;-53
2021/04/02 12:32:52;;;;;;;0.88;0.77;;;22.20;86.40;;;;;;5074615;28;20470;-65
2021/04/02 12:35:19;;;;;;;2.05;0.70;;;22.20;86.40;;;;;;5074175;28;20067;-66
2021/04/02 12:37:47;;;;;;;1.20;0.95;;;22.20;86.40;;;;;;5074304;28;20428;-57
2021/04/02 12:40:17;;;;;;;1.50;1.02;;;22.20;86.30;;;;;;5074391;28;20481;-66
2021/04/02 12:42:45;;;;;;;2.63;1.02;;;22.20;86.30;;;;;;5074364;28;20494;-52
2021/04/02 12:45:13;;;;;;;1.38;0.88;;;22.20;86.20;;;;;;5067460;28;20114;-55
2021/04/02 12:47:42;;;;;;;1.42;1.15;;;22.20;86.40;;;;;;5067866;28;20033;-52
2021/04/02 12:50:16;;;;;;;1.73;0.88;;;22.10;86.30;;;;;;5072008;28;20029;-53
2021/04/02 12:52:44;;;;;;;1.10;0.80;;;22.10;86.30;;;;;;5052018;28;20305;-58
2021/04/02 12:55:15;;;;;;;1.83;0.85;;;22.10;86.30;;;;;;5072424;28;20025;-53
2021/04/02 12:57:43;;;;;;;1.30;0.83;;;22.10;86.30;;;;;;5072181;28;20038;-49
2021/04/02 13:00:17;;;;;;;1.65;1.20;;;22.10;86.30;;;;;;5072267;28;20483;-53
2021/04/02 13:02:45;;;;;;;1.60;1.20;;;22.10;86.20;;;;;;5067664;28;20048;-52
2021/04/02 13:05:13;;;;;;;1.77;0.80;;;22.10;86.30;;;;;;5072233;28;20017;-56